Toyofujimaru No.2 — 7JDI — position and weather

sailwx.info

Track history (hours):
 
Tides and Currents Weather Stations Pressure Air Temp Water Temp Dewpoint Dewpoint Depression Visibility Wind Speed Wind Dir Waves Ship Positions

Toyofujimaru No.2

Last reported at 2016-Jul-25 02:33 UTC. Time now 2016-Jul-26 04:35 UTC.
Position N 24°58' E 120°27'.

Length 165 m; draft 6.2 m.

Type: Ship. MMSI: 432667000.

Date/timePositionNaut miles runAvg speedWind from/ knotsBaromVisibWave heightAir tempDewpointWater temp
2016-Jul-25 02:33N 24°58' E 120°27'1917.9
2016-Jul-25 01:29N 24°48' E 120°09'1718.2
2016-Jul-25 00:33N 24°39' E 119°54'2218.1
2016-Jul-24 23:20N 24°26' E 119°34'1417.4
2016-Jul-24 22:33N 24°19' E 119°22'1817.6
2016-Jul-24 21:33N 24°09' E 119°06'2317.8
2016-Jul-24 20:15N 23°56' E 118°45'1318.3
2016-Jul-24 19:33N 23°48' E 118°34'2017.9
2016-Jul-24 18:27N 23°38' E 118°15'2018.6
2016-Jul-24 17:23N 23°27' E 117°57'1619.3
2016-Jul-24 16:33N 23°18' E 117°43'1919.0
2016-Jul-24 15:32N 23°10' E 117°23'1818.6
2016-Jul-24 14:33N 23°01' E 117°06'1818.1
2016-Jul-24 13:33N 22°52' E 116°49'1817.9
2016-Jul-24 12:33N 22°44' E 116°32'15218.0
2016-Jul-24 04:05N 22°06' E 113°52'610.6
2016-Jul-24 03:34N 22°10' E 113°47'1413.9
2016-Jul-24 02:33N 22°24' E 113°46'1914.2
2016-Jul-24 01:15N 22°42' E 113°41'811.0
2016-Jul-24 00:31N 22°49' E 113°36'1010.2
2016-Jul-23 23:33N 22°58' E 113°33'3 2.7
2016-Jul-23 22:28N 23°01' E 113°32'0 0.0
2016-Jul-23 21:22N 23°01' E 113°32'0 0.0
2016-Jul-23 20:28N 23°01' E 113°32'0 0.0
2016-Jul-23 19:22N 23°01' E 113°32'0 0.0
2016-Jul-23 18:22N 23°01' E 113°32'0 0.0
2016-Jul-23 17:16N 23°01' E 113°32'0 0.0
2016-Jul-23 16:28N 23°01' E 113°32'0 0.0
2016-Jul-23 15:28N 23°01' E 113°32'0 0.0
2016-Jul-23 14:22N 23°01' E 113°32'0 0.0
2016-Jul-23 13:33N 23°01' E 113°32'3 2.7
2016-Jul-23 12:33N 22°58' E 113°33'7 7.3
2016-Jul-23 11:33N 22°51' E 113°34'1110.9
2016-Jul-23 10:32N 22°42' E 113°41'1513.9
2016-Jul-23 09:28N 22°27' E 113°45'1314.0
2016-Jul-23 08:33N 22°15' E 113°48'10 4.2
2016-Jul-23 06:07N 22°05' E 113°53'22113.3
2016-Jul-22 13:29N 23°17' E 117°39'2116.4
2016-Jul-22 12:10N 23°30' E 117°58'1016.8
2016-Jul-22 11:33N 23°37' E 118°06'1716.6
2016-Jul-22 10:33N 23°46' E 118°21'1716.8
2016-Jul-22 09:33N 23°58' E 118°34'1717.2
2016-Jul-22 08:33N 24°09' E 118°49'1717.0
2016-Jul-22 07:33N 24°20' E 119°03'1717.3
2016-Jul-22 06:33N 24°31' E 119°18'3717.0
2016-Jul-22 04:23N 24°55' E 119°49'  
Track history (hours):
 
Tides and Currents Weather Stations Pressure Air Temp Water Temp Dewpoint Dewpoint Depression Visibility Wind Speed Wind Dir Waves Ship Positions

Toyofujimaru No.2

Last reported at 2016-Jul-25 02:33 UTC. Time now 2016-Jul-26 04:35 UTC.
Position N 24°58' E 120°27'.

Length 165 m; draft 6.2 m.

Type: Ship. MMSI: 432667000.

Date/timePositionNaut miles runAvg speedWind from/ knotsBaromVisibWave heightAir tempDewpointWater temp
2016-Jul-25 02:33N 24°58' E 120°27'1917.9
2016-Jul-25 01:29N 24°48' E 120°09'1718.2
2016-Jul-25 00:33N 24°39' E 119°54'2218.1
2016-Jul-24 23:20N 24°26' E 119°34'1417.4
2016-Jul-24 22:33N 24°19' E 119°22'1817.6
2016-Jul-24 21:33N 24°09' E 119°06'2317.8
2016-Jul-24 20:15N 23°56' E 118°45'1318.3
2016-Jul-24 19:33N 23°48' E 118°34'2017.9
2016-Jul-24 18:27N 23°38' E 118°15'2018.6
2016-Jul-24 17:23N 23°27' E 117°57'1619.3
2016-Jul-24 16:33N 23°18' E 117°43'1919.0
2016-Jul-24 15:32N 23°10' E 117°23'1818.6
2016-Jul-24 14:33N 23°01' E 117°06'1818.1
2016-Jul-24 13:33N 22°52' E 116°49'1817.9
2016-Jul-24 12:33N 22°44' E 116°32'15218.0
2016-Jul-24 04:05N 22°06' E 113°52'610.6
2016-Jul-24 03:34N 22°10' E 113°47'1413.9
2016-Jul-24 02:33N 22°24' E 113°46'1914.2
2016-Jul-24 01:15N 22°42' E 113°41'811.0
2016-Jul-24 00:31N 22°49' E 113°36'1010.2
2016-Jul-23 23:33N 22°58' E 113°33'3 2.7
2016-Jul-23 22:28N 23°01' E 113°32'0 0.0
2016-Jul-23 21:22N 23°01' E 113°32'0 0.0
2016-Jul-23 20:28N 23°01' E 113°32'0 0.0
2016-Jul-23 19:22N 23°01' E 113°32'0 0.0
2016-Jul-23 18:22N 23°01' E 113°32'0 0.0
2016-Jul-23 17:16N 23°01' E 113°32'0 0.0
2016-Jul-23 16:28N 23°01' E 113°32'0 0.0
2016-Jul-23 15:28N 23°01' E 113°32'0 0.0
2016-Jul-23 14:22N 23°01' E 113°32'0 0.0
2016-Jul-23 13:33N 23°01' E 113°32'3 2.7
2016-Jul-23 12:33N 22°58' E 113°33'7 7.3
2016-Jul-23 11:33N 22°51' E 113°34'1110.9
2016-Jul-23 10:32N 22°42' E 113°41'1513.9
2016-Jul-23 09:28N 22°27' E 113°45'1314.0
2016-Jul-23 08:33N 22°15' E 113°48'10 4.2
2016-Jul-23 06:07N 22°05' E 113°53'22113.3
2016-Jul-22 13:29N 23°17' E 117°39'2116.4
2016-Jul-22 12:10N 23°30' E 117°58'1016.8
2016-Jul-22 11:33N 23°37' E 118°06'1716.6
2016-Jul-22 10:33N 23°46' E 118°21'1716.8
2016-Jul-22 09:33N 23°58' E 118°34'1717.2
2016-Jul-22 08:33N 24°09' E 118°49'1717.0
2016-Jul-22 07:33N 24°20' E 119°03'1717.3
2016-Jul-22 06:33N 24°31' E 119°18'3717.0
2016-Jul-22 04:23N 24°55' E 119°49'  

Dump ship's entire track history